Time;durP1;ratioP1;P1;durP2;ratioP2;P2;SDS_P1;SDS_P2;PMS_P1;PMS_P2;Temp;Humidity;BMP_temperature;BMP_pressure;BME280_temperature;BME280_humidity;BME280_pressure;Samples;Min_cycle;Max_cycle;Signal;HPM_P1;HPM_P2
2023/10/27 00:00:19;;;;;;;0.90;0.90;;;;;;;;;;1026716;28;20093;-72
2023/10/27 00:00:50;;;;;;;1.23;1.23;;;;;;;;;;1027029;28;20053;-72
2023/10/27 00:01:20;;;;;;;0.22;0.22;;;;;;;;;;1027213;28;20485;-72
2023/10/27 00:01:51;;;;;;;0.40;0.40;;;;;;;;;;1027065;28;20030;-73
2023/10/27 00:02:21;;;;;;;0.82;0.82;;;;;;;;;;1027023;28;20018;-73
2023/10/27 00:02:52;;;;;;;0.15;0.15;;;;;;;;;;1026959;28;20061;-73
2023/10/27 00:03:22;;;;;;;0.52;0.52;;;;;;;;;;1027175;28;20114;-73
2023/10/27 00:03:54;;;;;;;0.10;0.10;;;;;;;;;;1027489;28;20037;-73
2023/10/27 00:04:24;;;;;;;1.10;0.70;;;;;;;;;;1030927;28;20193;-73
2023/10/27 00:04:55;;;;;;;1.17;0.80;;;;;;;;;;1031135;28;20038;-73
2023/10/27 00:05:25;;;;;;;0.10;0.10;;;;;;;;;;1030872;28;20010;-73
2023/10/27 00:05:56;;;;;;;1.27;1.00;;;;;;;;;;1031063;28;20015;-73
2023/10/27 00:06:27;;;;;;;0.50;0.50;;;;;;;;;;1027028;28;20033;-73
2023/10/27 00:06:58;;;;;;;0.28;0.28;;;;;;;;;;1026940;28;20391;-73
2023/10/27 00:07:29;;;;;;;0.73;0.73;;;;;;;;;;1031023;28;20066;-73
2023/10/27 00:07:59;;;;;;;0.50;0.50;;;;;;;;;;1030944;28;20100;-73
2023/10/27 00:08:30;;;;;;;0.47;0.47;;;;;;;;;;1030598;28;20129;-73
2023/10/27 00:09:00;;;;;;;2.83;0.75;;;;;;;;;;1030596;28;20073;-73
2023/10/27 00:09:33;;;;;;;0.40;0.40;;;;;;;;;;1027259;28;20015;-73
2023/10/27 00:10:03;;;;;;;0.43;0.43;;;;;;;;;;1027539;28;20022;-73
2023/10/27 00:10:37;;;;;;;0.40;0.40;;;;;;;;;;1026831;28;20529;-73
2023/10/27 00:11:08;;;;;;;2.70;1.55;;;;;;;;;;1026642;28;20027;-73
2023/10/27 00:11:38;;;;;;;0.50;0.50;;;;;;;;;;1030776;28;20679;-73
2023/10/27 00:12:09;;;;;;;0.30;0.30;;;;;;;;;;1030666;28;20026;-73
2023/10/27 00:12:39;;;;;;;2.55;2.33;;;;;;;;;;1030544;28;20062;-73
2023/10/27 00:13:10;;;;;;;1.75;1.65;;;;;;;;;;1030516;28;20026;-73
2023/10/27 00:13:40;;;;;;;0.70;0.68;;;;;;;;;;1030698;28;20070;-73
2023/10/27 00:14:11;;;;;;;0.10;0.10;;;;;;;;;;1027481;28;20549;-74
2023/10/27 00:14:42;;;;;;;5.57;2.38;;;;;;;;;;1027099;28;20014;-73
2023/10/27 00:15:13;;;;;;;1.00;1.00;;;;;;;;;;1026601;28;20031;-73
2023/10/27 00:15:43;;;;;;;0.70;0.68;;;;;;;;;;1027357;28;20492;-73
2023/10/27 00:16:14;;;;;;;2.88;0.85;;;;;;;;;;1027385;28;20050;-73
2023/10/27 00:16:45;;;;;;;0.45;0.40;;;;;;;;;;1027345;28;20034;-73
2023/10/27 00:17:15;;;;;;;0.98;0.93;;;;;;;;;;1027202;28;20034;-73
2023/10/27 00:17:46;;;;;;;0.10;0.10;;;;;;;;;;1027054;28;20019;-73
2023/10/27 00:18:16;;;;;;;0.30;0.30;;;;;;;;;;1027362;28;20080;-73
2023/10/27 00:18:47;;;;;;;1.33;0.50;;;;;;;;;;1027029;28;20475;-73
2023/10/27 00:19:17;;;;;;;0.63;0.63;;;;;;;;;;1026878;28;20035;-73
2023/10/27 00:19:48;;;;;;;3.85;1.05;;;;;;;;;;1026817;28;20153;-73
2023/10/27 00:20:18;;;;;;;0.10;0.10;;;;;;;;;;1026861;28;20031;-73
2023/10/27 00:20:49;;;;;;;0.20;0.20;;;;;;;;;;1026641;28;20030;-73
2023/10/27 00:21:19;;;;;;;0.32;0.30;;;;;;;;;;1026652;28;20068;-73
2023/10/27 00:21:50;;;;;;;0.75;0.75;;;;;;;;;;1027078;28;20058;-73
2023/10/27 00:22:20;;;;;;;0.40;0.40;;;;;;;;;;1026899;28;20037;-73
2023/10/27 00:22:51;;;;;;;0.43;0.30;;;;;;;;;;1026982;28;20053;-73
2023/10/27 00:23:22;;;;;;;1.02;1.00;;;;;;;;;;1026923;28;20034;-73
2023/10/27 00:23:52;;;;;;;1.30;1.27;;;;;;;;;;1027408;28;20015;-73
2023/10/27 00:24:24;;;;;;;0.32;0.32;;;;;;;;;;1027336;28;20018;-73
2023/10/27 00:24:54;;;;;;;0.45;0.45;;;;;;;;;;1026986;28;20026;-73
2023/10/27 00:25:25;;;;;;;0.50;0.50;;;;;;;;;;1027117;28;20039;-73
2023/10/27 00:25:55;;;;;;;0.13;0.13;;;;;;;;;;1025130;28;20528;-73
2023/10/27 00:26:26;;;;;;;17.15;1.00;;;;;;;;;;1025129;28;20455;-73
2023/10/27 00:26:56;;;;;;;3.55;2.75;;;;;;;;;;1026861;28;20026;-73
2023/10/27 00:27:27;;;;;;;1.08;0.95;;;;;;;;;;1027744;28;20031;-73
2023/10/27 00:27:57;;;;;;;0.75;0.75;;;;;;;;;;1028163;28;20647;-73
2023/10/27 00:28:28;;;;;;;0.25;0.25;;;;;;;;;;1027758;28;20048;-73
2023/10/27 00:28:59;;;;;;;1.50;1.40;;;;;;;;;;1028001;28;20070;-73
2023/10/27 00:29:29;;;;;;;0.30;0.30;;;;;;;;;;1027784;28;20495;-73
2023/10/27 00:30:00;;;;;;;1.95;1.85;;;;;;;;;;1028004;28;20479;-73
2023/10/27 00:30:30;;;;;;;1.98;0.80;;;;;;;;;;1027556;28;20054;-73
2023/10/27 00:31:01;;;;;;;0.30;0.30;;;;;;;;;;1027405;28;20451;-73
2023/10/27 00:31:31;;;;;;;0.73;0.73;;;;;;;;;;1027687;28;20565;-73
2023/10/27 00:32:02;;;;;;;1.25;1.15;;;;;;;;;;1027554;28;20371;-73
2023/10/27 00:32:33;;;;;;;1.13;1.08;;;;;;;;;;1027494;28;20169;-73
2023/10/27 00:33:03;;;;;;;0.65;0.65;;;;;;;;;;1027161;28;20015;-73
2023/10/27 00:33:34;;;;;;;0.30;0.30;;;;;;;;;;1027485;28;20545;-74
2023/10/27 00:34:04;;;;;;;0.50;0.50;;;;;;;;;;1029392;28;20030;-74
2023/10/27 00:34:35;;;;;;;0.52;0.52;;;;;;;;;;1029465;28;20536;-73
2023/10/27 00:35:06;;;;;;;0.52;0.52;;;;;;;;;;1029404;28;20026;-74
2023/10/27 00:35:36;;;;;;;17.58;2.35;;;;;;;;;;1029700;28;20480;-74
2023/10/27 00:36:07;;;;;;;0.35;0.35;;;;;;;;;;1027585;28;20019;-74
2023/10/27 00:36:37;;;;;;;0.40;0.40;;;;;;;;;;1027954;28;20073;-74
2023/10/27 00:37:08;;;;;;;0.77;0.77;;;;;;;;;;1027409;28;20027;-74
2023/10/27 00:37:40;;;;;;;0.10;0.10;;;;;;;;;;1027260;28;20044;-74
2023/10/27 00:38:10;;;;;;;0.40;0.40;;;;;;;;;;1027594;28;20023;-74
2023/10/27 00:38:41;;;;;;;0.50;0.50;;;;;;;;;;1027316;28;20439;-74
2023/10/27 00:39:11;;;;;;;1.73;1.63;;;;;;;;;;1027429;28;20041;-74
2023/10/27 00:39:42;;;;;;;0.85;0.85;;;;;;;;;;1027916;28;20065;-74
2023/10/27 00:40:13;;;;;;;0.43;0.43;;;;;;;;;;1027982;28;20399;-74
2023/10/27 00:40:44;;;;;;;0.20;0.20;;;;;;;;;;1027523;28;20419;-75
2023/10/27 00:41:15;;;;;;;0.10;0.10;;;;;;;;;;1027232;28;20121;-75
2023/10/27 00:41:45;;;;;;;0.75;0.75;;;;;;;;;;1027703;28;20042;-74
2023/10/27 00:42:16;;;;;;;0.10;0.10;;;;;;;;;;1027541;28;20022;-75
2023/10/27 00:42:46;;;;;;;0.20;0.20;;;;;;;;;;1025420;28;20019;-74
2023/10/27 00:43:17;;;;;;;1.42;0.63;;;;;;;;;;1029586;28;20050;-75
2023/10/27 00:43:48;;;;;;;0.60;0.60;;;;;;;;;;1030089;28;20032;-75
2023/10/27 00:44:18;;;;;;;0.30;0.30;;;;;;;;;;1029363;28;20030;-75
2023/10/27 00:44:49;;;;;;;4.03;1.88;;;;;;;;;;1026989;28;20027;-75
2023/10/27 00:45:20;;;;;;;2.78;1.08;;;;;;;;;;1026818;28;20127;-75
2023/10/27 00:45:50;;;;;;;0.63;0.63;;;;;;;;;;1027606;28;20019;-75
2023/10/27 00:46:21;;;;;;;4.18;1.55;;;;;;;;;;1027504;28;20458;-75
2023/10/27 00:46:52;;;;;;;0.77;0.77;;;;;;;;;;1027598;28;20031;-75
2023/10/27 00:47:26;;;;;;;0.30;0.30;;;;;;;;;;1027440;28;20026;-75
2023/10/27 00:47:57;;;;;;;1.33;1.33;;;;;;;;;;1028271;28;20023;-75
2023/10/27 00:48:28;;;;;;;5.70;1.63;;;;;;;;;;1031118;28;20056;-75
2023/10/27 00:48:59;;;;;;;0.95;0.95;;;;;;;;;;1027475;28;20066;-75
2023/10/27 00:49:30;;;;;;;0.73;0.73;;;;;;;;;;1027511;28;20026;-75
2023/10/27 00:50:01;;;;;;;0.88;0.88;;;;;;;;;;1026024;28;20023;-75
2023/10/27 00:50:32;;;;;;;0.25;0.25;;;;;;;;;;1025296;28;20483;-75
2023/10/27 00:51:05;;;;;;;0.32;0.32;;;;;;;;;;1025957;28;20073;-75
2023/10/27 00:51:36;;;;;;;0.77;0.77;;;;;;;;;;1029439;28;20433;-75
2023/10/27 00:52:06;;;;;;;0.52;0.52;;;;;;;;;;1027860;28;20051;-75
2023/10/27 00:52:37;;;;;;;0.40;0.40;;;;;;;;;;1027470;28;20019;-75
2023/10/27 00:53:08;;;;;;;0.52;0.52;;;;;;;;;;1027336;28;20023;-75
2023/10/27 00:53:39;;;;;;;0.70;0.70;;;;;;;;;;1027244;28;20026;-75
2023/10/27 00:54:10;;;;;;;0.25;0.25;;;;;;;;;;1023873;28;20062;-75
2023/10/27 00:54:43;;;;;;;15.88;1.10;;;;;;;;;;1027593;28;20019;-75
2023/10/27 00:55:13;;;;;;;0.10;0.10;;;;;;;;;;1026869;28;20117;-75
2023/10/27 00:55:44;;;;;;;1.55;1.23;;;;;;;;;;1025918;28;20093;-75
2023/10/27 00:56:15;;;;;;;1.40;1.30;;;;;;;;;;1027344;28;20133;-75
2023/10/27 00:56:45;;;;;;;1.17;0.57;;;;;;;;;;1027182;28;20113;-75
2023/10/27 00:57:16;;;;;;;0.38;0.38;;;;;;;;;;1026659;28;20080;-75
2023/10/27 00:57:48;;;;;;;0.20;0.20;;;;;;;;;;1026792;28;20474;-75
2023/10/27 00:58:19;;;;;;;0.22;0.22;;;;;;;;;;1031249;28;20033;-76
2023/10/27 00:58:50;;;;;;;1.20;1.10;;;;;;;;;;1029902;28;20034;-75
2023/10/27 00:59:21;;;;;;;0.40;0.40;;;;;;;;;;1030926;28;20113;-75
2023/10/27 00:59:52;;;;;;;1.02;0.85;;;;;;;;;;1031229;28;20026;-75
2023/10/27 01:00:22;;;;;;;3.83;2.17;;;;;;;;;;1026849;28;20085;-75
2023/10/27 01:00:55;;;;;;;0.32;0.32;;;;;;;;;;1030834;28;20049;-75
2023/10/27 01:01:25;;;;;;;0.60;0.60;;;;;;;;;;1030947;28;20024;-75
2023/10/27 01:01:56;;;;;;;0.60;0.38;;;;;;;;;;1031340;28;20399;-75
2023/10/27 01:02:26;;;;;;;0.38;0.38;;;;;;;;;;1030448;28;20399;-75
2023/10/27 01:02:57;;;;;;;0.43;0.43;;;;;;;;;;1027340;28;20027;-75
2023/10/27 01:03:27;;;;;;;3.70;1.63;;;;;;;;;;1026703;28;20034;-75
2023/10/27 01:03:58;;;;;;;3.92;2.83;;;;;;;;;;1026773;28;20562;-75
2023/10/27 01:04:29;;;;;;;0.40;0.40;;;;;;;;;;1027347;28;20093;-75
2023/10/27 01:04:59;;;;;;;0.63;0.63;;;;;;;;;;1027060;28;20137;-75
2023/10/27 01:05:30;;;;;;;0.30;0.20;;;;;;;;;;1027121;28;20062;-75
2023/10/27 01:06:01;;;;;;;1.15;1.15;;;;;;;;;;1030296;28;20166;-75
2023/10/27 01:06:31;;;;;;;18.63;3.15;;;;;;;;;;1030967;28;20022;-75
2023/10/27 01:07:02;;;;;;;0.90;0.90;;;;;;;;;;1030876;28;20033;-75
2023/10/27 01:07:33;;;;;;;0.80;0.65;;;;;;;;;;1027392;28;20022;-75
2023/10/27 01:08:03;;;;;;;0.75;0.75;;;;;;;;;;1027576;28;20078;-76
2023/10/27 01:08:34;;;;;;;0.10;0.10;;;;;;;;;;1027131;28;20023;-75
2023/10/27 01:09:04;;;;;;;0.28;0.28;;;;;;;;;;1025805;28;20115;-75
2023/10/27 01:09:35;;;;;;;5.72;2.75;;;;;;;;;;1027221;28;20026;-75
2023/10/27 01:10:06;;;;;;;1.40;1.30;;;;;;;;;;1027233;28;20034;-75
2023/10/27 01:10:36;;;;;;;0.10;0.10;;;;;;;;;;1027504;28;20664;-76
2023/10/27 01:11:07;;;;;;;2.88;1.13;;;;;;;;;;1027124;28;20179;-75
2023/10/27 01:11:38;;;;;;;1.75;1.42;;;;;;;;;;1027132;28;20030;-75
2023/10/27 01:12:08;;;;;;;3.78;1.55;;;;;;;;;;1029337;28;20062;-75
2023/10/27 01:12:43;;;;;;;1.75;0.57;;;;;;;;;;1025751;28;20050;-75
2023/10/27 01:13:14;;;;;;;0.28;0.28;;;;;;;;;;1025974;28;20045;-75
2023/10/27 01:13:44;;;;;;;0.20;0.20;;;;;;;;;;1024220;28;20467;-75
2023/10/27 01:14:16;;;;;;;0.47;0.38;;;;;;;;;;1024702;28;20058;-75
2023/10/27 01:14:47;;;;;;;0.30;0.30;;;;;;;;;;1026477;28;20082;-75
2023/10/27 01:15:18;;;;;;;0.10;0.10;;;;;;;;;;1024334;28;20123;-73
2023/10/27 01:15:48;;;;;;;0.20;0.20;;;;;;;;;;1026820;28;20153;-72
2023/10/27 01:16:19;;;;;;;0.93;0.93;;;;;;;;;;1026287;28;20033;-73
2023/10/27 01:16:50;;;;;;;0.65;0.65;;;;;;;;;;1026660;28;20077;-73
2023/10/27 01:17:21;;;;;;;0.90;0.90;;;;;;;;;;1031591;28;20050;-75
2023/10/27 01:17:53;;;;;;;0.90;0.77;;;;;;;;;;1031239;28;20030;-74
2023/10/27 01:18:23;;;;;;;1.20;0.93;;;;;;;;;;1031175;28;20029;-74
2023/10/27 01:18:56;;;;;;;0.75;0.75;;;;;;;;;;1027058;28;20173;-74
2023/10/27 01:19:28;;;;;;;0.52;0.52;;;;;;;;;;1029919;28;20017;-74
2023/10/27 01:19:58;;;;;;;0.50;0.50;;;;;;;;;;1027089;28;20054;-74
2023/10/27 01:20:29;;;;;;;0.52;0.52;;;;;;;;;;1026995;28;20027;-74
2023/10/27 01:20:59;;;;;;;0.57;0.57;;;;;;;;;;1026260;28;20050;-76
2023/10/27 01:21:30;;;;;;;1.02;0.95;;;;;;;;;;1027188;28;20054;-74
2023/10/27 01:22:01;;;;;;;1.77;1.38;;;;;;;;;;1027034;28;20046;-74
2023/10/27 01:22:33;;;;;;;0.17;0.17;;;;;;;;;;1027225;28;20058;-74
2023/10/27 01:23:04;;;;;;;1.13;1.13;;;;;;;;;;1026056;28;20027;-74
2023/10/27 01:23:35;;;;;;;0.40;0.40;;;;;;;;;;1031550;28;20296;-74
2023/10/27 01:24:12;;;;;;;0.90;0.50;;;;;;;;;;1031791;28;20022;-74
2023/10/27 01:24:42;;;;;;;1.00;0.98;;;;;;;;;;1030382;28;20026;-74
2023/10/27 01:25:16;;;;;;;2.05;1.95;;;;;;;;;;1026053;28;20019;-74
2023/10/27 01:25:47;;;;;;;1.00;0.85;;;;;;;;;;1025787;28;20392;-74
2023/10/27 01:26:18;;;;;;;2.17;1.52;;;;;;;;;;1023346;28;20117;-74
2023/10/27 01:26:49;;;;;;;1.13;1.13;;;;;;;;;;1026168;28;20031;-73
2023/10/27 01:27:20;;;;;;;0.52;0.52;;;;;;;;;;1025733;28;20050;-74
2023/10/27 01:27:50;;;;;;;1.00;0.47;;;;;;;;;;1027235;28;20038;-74
2023/10/27 01:28:22;;;;;;;0.20;0.20;;;;;;;;;;1027225;28;20482;-74
2023/10/27 01:28:53;;;;;;;0.38;0.38;;;;;;;;;;1027861;28;20414;-74
2023/10/27 01:29:27;;;;;;;0.80;0.80;;;;;;;;;;1021974;28;20545;-74
2023/10/27 01:29:58;;;;;;;0.22;0.22;;;;;;;;;;1024204;28;20062;-74
2023/10/27 01:30:29;;;;;;;0.30;0.30;;;;;;;;;;1023941;28;20019;-73
2023/10/27 01:31:00;;;;;;;0.65;0.57;;;;;;;;;;1026906;28;20106;-73
2023/10/27 01:31:30;;;;;;;0.20;0.20;;;;;;;;;;1026607;28;20038;-73
2023/10/27 01:32:01;;;;;;;1.23;1.02;;;;;;;;;;1028656;28;20197;-73
2023/10/27 01:32:33;;;;;;;1.75;1.65;;;;;;;;;;1029364;28;20553;-74
2023/10/27 01:33:04;;;;;;;2.97;2.53;;;;;;;;;;1029625;28;20065;-74
2023/10/27 01:33:37;;;;;;;1.65;1.33;;;;;;;;;;1027977;28;20069;-73
2023/10/27 01:34:09;;;;;;;0.20;0.20;;;;;;;;;;1027769;28;20042;-73
2023/10/27 01:34:40;;;;;;;1.33;1.25;;;;;;;;;;1030462;28;20511;-74
2023/10/27 01:35:11;;;;;;;1.08;1.08;;;;;;;;;;1029315;28;20093;-73
2023/10/27 01:35:41;;;;;;;0.22;0.22;;;;;;;;;;1028673;28;20022;-73
2023/10/27 01:36:13;;;;;;;0.70;0.70;;;;;;;;;;1028273;28;20022;-73
2023/10/27 01:36:44;;;;;;;0.50;0.50;;;;;;;;;;1024735;28;20497;-72
2023/10/27 01:37:15;;;;;;;0.25;0.25;;;;;;;;;;1025264;28;20034;-72
2023/10/27 01:37:46;;;;;;;0.52;0.52;;;;;;;;;;1020268;28;20069;-74
2023/10/27 01:38:17;;;;;;;0.20;0.20;;;;;;;;;;1020802;28;20023;-73
2023/10/27 01:38:47;;;;;;;0.40;0.40;;;;;;;;;;1020229;29;20483;-73
2023/10/27 01:39:19;;;;;;;1.10;1.00;;;;;;;;;;1022638;28;20530;-73
2023/10/27 01:39:50;;;;;;;0.95;0.95;;;;;;;;;;1025934;28;20147;-74
2023/10/27 01:40:24;;;;;;;0.38;0.38;;;;;;;;;;1026857;28;20027;-73
2023/10/27 01:41:17;;;;;;;0.52;0.52;;;;;;;;;;1025043;28;20038;-72
2023/10/27 01:41:47;;;;;;;0.88;0.73;;;;;;;;;;1026551;28;20078;-72
2023/10/27 01:42:18;;;;;;;3.78;1.13;;;;;;;;;;1024041;28;20034;-73
2023/10/27 01:42:49;;;;;;;6.00;2.30;;;;;;;;;;1020139;29;20086;-72
2023/10/27 01:43:20;;;;;;;1.40;1.13;;;;;;;;;;1020342;28;20096;-72
2023/10/27 01:43:51;;;;;;;0.55;0.55;;;;;;;;;;1022508;28;20019;-72
2023/10/27 01:44:21;;;;;;;0.65;0.65;;;;;;;;;;1025889;28;20475;-72
2023/10/27 01:44:53;;;;;;;0.25;0.25;;;;;;;;;;1027389;28;20124;-73
2023/10/27 01:45:23;;;;;;;0.10;0.10;;;;;;;;;;1028169;28;20466;-72
2023/10/27 01:45:54;;;;;;;0.93;0.63;;;;;;;;;;1026255;28;20014;-72
2023/10/27 01:46:25;;;;;;;2.83;1.40;;;;;;;;;;1026101;28;20030;-72
2023/10/27 01:46:55;;;;;;;2.55;1.35;;;;;;;;;;1024545;28;20090;-72
2023/10/27 01:47:28;;;;;;;0.47;0.47;;;;;;;;;;1025369;28;20054;-73
2023/10/27 01:48:00;;;;;;;2.05;1.55;;;;;;;;;;1024481;28;20065;-72
2023/10/27 01:48:31;;;;;;;5.40;2.45;;;;;;;;;;1024545;28;20037;-72
2023/10/27 01:49:03;;;;;;;1.13;1.02;;;;;;;;;;1026169;28;20069;-72
2023/10/27 01:49:36;;;;;;;1.10;1.10;;;;;;;;;;1024619;28;20087;-72
2023/10/27 01:50:07;;;;;;;0.47;0.47;;;;;;;;;;1025885;28;20119;-72
2023/10/27 01:50:37;;;;;;;0.13;0.13;;;;;;;;;;1028356;28;20145;-72
2023/10/27 01:51:08;;;;;;;1.10;1.08;;;;;;;;;;1026161;28;20039;-72
2023/10/27 01:51:39;;;;;;;2.05;1.95;;;;;;;;;;1024002;28;20023;-72
2023/10/27 01:52:09;;;;;;;1.05;0.65;;;;;;;;;;1026369;28;20062;-72
2023/10/27 01:52:41;;;;;;;2.22;1.25;;;;;;;;;;1026624;28;20023;-72
2023/10/27 01:53:11;;;;;;;1.73;1.63;;;;;;;;;;1025135;28;20114;-72
2023/10/27 01:53:42;;;;;;;1.15;1.15;;;;;;;;;;1031414;28;20175;-72
2023/10/27 01:54:14;;;;;;;1.23;1.15;;;;;;;;;;1032284;28;20053;-72
2023/10/27 01:54:44;;;;;;;0.75;0.75;;;;;;;;;;1025086;28;20061;-72
2023/10/27 01:55:15;;;;;;;0.75;0.75;;;;;;;;;;1023325;28;20089;-72
2023/10/27 01:55:46;;;;;;;0.73;0.73;;;;;;;;;;1017837;29;20746;-72
2023/10/27 01:56:17;;;;;;;2.05;1.95;;;;;;;;;;1020672;28;20035;-72
2023/10/27 01:56:47;;;;;;;1.30;1.20;;;;;;;;;;1021887;28;20142;-72
2023/10/27 01:57:21;;;;;;;0.30;0.30;;;;;;;;;;1025815;28;20026;-72
2023/10/27 01:57:51;;;;;;;6.70;3.15;;;;;;;;;;1022972;28;20030;-72
2023/10/27 01:58:24;;;;;;;0.50;0.50;;;;;;;;;;1023520;28;20026;-72
2023/10/27 01:58:55;;;;;;;0.15;0.15;;;;;;;;;;1029071;28;20033;-72
2023/10/27 01:59:25;;;;;;;2.55;1.85;;;;;;;;;;1026434;28;20033;-72
2023/10/27 01:59:56;;;;;;;2.25;2.05;;;;;;;;;;1028359;28;20140;-73
2023/10/27 02:00:27;;;;;;;2.60;1.48;;;;;;;;;;1026079;28;20082;-72
2023/10/27 02:00:58;;;;;;;1.88;1.73;;;;;;;;;;1027503;28;20479;-72
2023/10/27 02:01:29;;;;;;;2.03;1.02;;;;;;;;;;1027250;28;20026;-72
2023/10/27 02:02:00;;;;;;;7.47;3.38;;;;;;;;;;1026924;28;20030;-73
2023/10/27 02:02:32;;;;;;;2.03;1.92;;;;;;;;;;1025837;28;20545;-73
2023/10/27 02:03:03;;;;;;;0.65;0.65;;;;;;;;;;1024991;28;20085;-72
2023/10/27 02:03:33;;;;;;;0.70;0.70;;;;;;;;;;1022695;28;20058;-72
2023/10/27 02:04:04;;;;;;;1.95;1.33;;;;;;;;;;1025041;28;20806;-72
2023/10/27 02:04:35;;;;;;;0.30;0.30;;;;;;;;;;1026100;28;20022;-72
2023/10/27 02:05:07;;;;;;;3.80;3.53;;;;;;;;;;1027287;28;20053;-72
2023/10/27 02:05:47;;;;;;;1.98;0.40;;;;;;;;;;1026250;28;20037;-73
2023/10/27 02:06:26;;;;;;;9.13;2.22;;;;;;;;;;1025382;28;20034;-73
2023/10/27 02:06:57;;;;;;;2.10;1.80;;;;;;;;;;1025045;28;20084;-73
2023/10/27 02:07:27;;;;;;;1.80;1.70;;;;;;;;;;1025681;28;20033;-73
2023/10/27 02:08:00;;;;;;;0.85;0.85;;;;;;;;;;1026419;28;20034;-73
2023/10/27 02:08:31;;;;;;;0.75;0.75;;;;;;;;;;1026323;28;20133;-72
2023/10/27 02:09:02;;;;;;;3.30;2.20;;;;;;;;;;1026383;28;20125;-72
2023/10/27 02:09:33;;;;;;;0.50;0.50;;;;;;;;;;1026382;28;20121;-72
2023/10/27 02:10:04;;;;;;;2.15;1.95;;;;;;;;;;1025228;28;20576;-72
2023/10/27 02:10:34;;;;;;;1.77;1.25;;;;;;;;;;1025821;28;20093;-73
2023/10/27 02:11:05;;;;;;;3.78;3.40;;;;;;;;;;1025881;28;20031;-73
2023/10/27 02:11:37;;;;;;;1.95;1.85;;;;;;;;;;1029693;28;20019;-73
2023/10/27 02:12:09;;;;;;;1.35;1.17;;;;;;;;;;1029961;28;20597;-73
2023/10/27 02:12:40;;;;;;;2.08;1.40;;;;;;;;;;1029207;28;21101;-72
2023/10/27 02:13:10;;;;;;;1.73;1.15;;;;;;;;;;1029572;28;20034;-72
2023/10/27 02:13:41;;;;;;;2.97;2.35;;;;;;;;;;1025699;28;20113;-72
2023/10/27 02:14:12;;;;;;;1.35;1.25;;;;;;;;;;1026087;28;20022;-72
2023/10/27 02:14:42;;;;;;;2.50;1.45;;;;;;;;;;1026027;28;20022;-72
2023/10/27 02:15:13;;;;;;;1.30;1.25;;;;;;;;;;1028797;28;20038;-72
2023/10/27 02:15:43;;;;;;;0.63;0.63;;;;;;;;;;1029054;28;20030;-73
2023/10/27 02:16:14;;;;;;;3.42;3.13;;;;;;;;;;1023534;28;20142;-73
2023/10/27 02:16:44;;;;;;;1.75;1.08;;;;;;;;;;1025117;28;20473;-72
2023/10/27 02:17:15;;;;;;;1.23;1.20;;;;;;;;;;1026545;28;20077;-73
2023/10/27 02:17:46;;;;;;;3.65;3.35;;;;;;;;;;1028922;28;20018;-74
2023/10/27 02:18:17;;;;;;;1.35;1.17;;;;;;;;;;1030020;28;20026;-74
2023/10/27 02:18:48;;;;;;;0.85;0.85;;;;;;;;;;1026593;28;20117;-73
2023/10/27 02:19:18;;;;;;;1.00;0.95;;;;;;;;;;1025076;28;20566;-73
2023/10/27 02:19:50;;;;;;;2.13;1.92;;;;;;;;;;1025449;28;20027;-73
2023/10/27 02:20:21;;;;;;;1.38;1.27;;;;;;;;;;1022148;28;21404;-73
2023/10/27 02:20:51;;;;;;;0.50;0.40;;;;;;;;;;1018536;29;20110;-73
2023/10/27 02:21:22;;;;;;;4.07;0.85;;;;;;;;;;1016969;29;20480;-73
2023/10/27 02:21:52;;;;;;;1.25;1.15;;;;;;;;;;1021142;28;20064;-73
2023/10/27 02:22:23;;;;;;;2.08;1.98;;;;;;;;;;1024506;28;20030;-73
2023/10/27 02:22:53;;;;;;;1.38;1.08;;;;;;;;;;1026132;28;20030;-73
2023/10/27 02:23:25;;;;;;;0.60;0.60;;;;;;;;;;1024710;28;20125;-73
2023/10/27 02:23:56;;;;;;;3.42;1.23;;;;;;;;;;1025285;28;20035;-75
2023/10/27 02:24:27;;;;;;;0.93;0.93;;;;;;;;;;1029276;28;20088;-75
2023/10/27 02:24:57;;;;;;;2.05;1.85;;;;;;;;;;1028562;28;20060;-74
2023/10/27 02:25:28;;;;;;;1.30;1.20;;;;;;;;;;1028758;28;20967;-74
2023/10/27 02:25:59;;;;;;;0.40;0.40;;;;;;;;;;1029496;28;20045;-73
2023/10/27 02:26:29;;;;;;;1.85;1.45;;;;;;;;;;1029213;28;20069;-73
2023/10/27 02:27:00;;;;;;;0.40;0.40;;;;;;;;;;1025079;28;20422;-73
2023/10/27 02:27:31;;;;;;;0.50;0.50;;;;;;;;;;1023612;28;20038;-73
2023/10/27 02:28:02;;;;;;;2.33;2.13;;;;;;;;;;1025007;28;20394;-72
2023/10/27 02:28:32;;;;;;;2.85;2.38;;;;;;;;;;1024994;28;20041;-72
2023/10/27 02:29:03;;;;;;;3.72;1.65;;;;;;;;;;1027607;28;20030;-72
2023/10/27 02:29:34;;;;;;;1.98;1.23;;;;;;;;;;1026422;28;20035;-72
2023/10/27 02:30:06;;;;;;;1.40;1.30;;;;;;;;;;1026654;28;20034;-72
2023/10/27 02:30:36;;;;;;;0.70;0.70;;;;;;;;;;1028734;28;20042;-72
2023/10/27 02:31:08;;;;;;;1.27;1.17;;;;;;;;;;1027320;28;20019;-72
2023/10/27 02:31:39;;;;;;;1.35;0.55;;;;;;;;;;1025043;28;20521;-73
2023/10/27 02:32:09;;;;;;;1.40;1.30;;;;;;;;;;1020748;28;20086;-73
2023/10/27 02:32:40;;;;;;;0.17;0.17;;;;;;;;;;1025077;28;20031;-72
2023/10/27 02:33:11;;;;;;;1.40;0.90;;;;;;;;;;1025516;28;20061;-72
2023/10/27 02:33:42;;;;;;;1.30;1.20;;;;;;;;;;1025154;28;20048;-72
2023/10/27 02:34:12;;;;;;;1.25;1.15;;;;;;;;;;1025131;28;20157;-72
2023/10/27 02:34:43;;;;;;;1.02;0.50;;;;;;;;;;1027445;28;20168;-72
2023/10/27 02:35:15;;;;;;;2.20;2.08;;;;;;;;;;1028495;28;20057;-72
2023/10/27 02:35:46;;;;;;;0.30;0.30;;;;;;;;;;1029601;28;20080;-72
2023/10/27 02:36:16;;;;;;;0.60;0.60;;;;;;;;;;1025372;28;20030;-72
2023/10/27 02:36:47;;;;;;;1.38;1.27;;;;;;;;;;1021223;28;20400;-72
2023/10/27 02:37:17;;;;;;;0.50;0.50;;;;;;;;;;1025672;28;20178;-72
2023/10/27 02:37:48;;;;;;;3.80;1.60;;;;;;;;;;1026069;28;20581;-72
2023/10/27 02:38:18;;;;;;;0.40;0.40;;;;;;;;;;1030092;28;20018;-72
2023/10/27 02:38:54;;;;;;;0.82;0.82;;;;;;;;;;1024384;28;20799;-72
2023/10/27 02:39:25;;;;;;;0.40;0.40;;;;;;;;;;1025414;28;20458;-73
2023/10/27 02:39:56;;;;;;;12.68;1.25;;;;;;;;;;1026368;28;20027;-72
2023/10/27 02:40:27;;;;;;;0.45;0.45;;;;;;;;;;1022153;28;20491;-73
2023/10/27 02:40:57;;;;;;;11.13;1.42;;;;;;;;;;1022089;28;20035;-72
2023/10/27 02:41:28;;;;;;;5.18;1.80;;;;;;;;;;1021490;28;20023;-73
2023/10/27 02:41:59;;;;;;;0.32;0.28;;;;;;;;;;1018839;29;20708;-73
2023/10/27 02:42:31;;;;;;;2.15;2.00;;;;;;;;;;1021177;29;20086;-73
2023/10/27 02:43:02;;;;;;;2.03;1.85;;;;;;;;;;1023534;28;20031;-72
2023/10/27 02:43:33;;;;;;;0.28;0.28;;;;;;;;;;1022096;28;20050;-72
2023/10/27 02:44:04;;;;;;;1.45;1.15;;;;;;;;;;1021659;28;20597;-71
2023/10/27 02:44:35;;;;;;;0.25;0.25;;;;;;;;;;1019872;28;20126;-73
2023/10/27 02:45:07;;;;;;;1.08;1.08;;;;;;;;;;1021732;28;20035;-71
2023/10/27 02:45:38;;;;;;;22.00;2.10;;;;;;;;;;1023643;28;20023;-71
2023/10/27 02:46:12;;;;;;;0.70;0.70;;;;;;;;;;1027013;28;20042;-72
2023/10/27 02:46:44;;;;;;;1.20;1.20;;;;;;;;;;1022863;28;20008;-71
2023/10/27 02:47:15;;;;;;;0.90;0.90;;;;;;;;;;1024016;28;20031;-71
2023/10/27 02:47:46;;;;;;;2.97;1.05;;;;;;;;;;1026424;28;20989;-74
2023/10/27 02:48:16;;;;;;;2.78;0.80;;;;;;;;;;1027279;28;20042;-71
2023/10/27 02:48:47;;;;;;;0.35;0.35;;;;;;;;;;1026200;28;20023;-72
2023/10/27 02:49:17;;;;;;;0.60;0.60;;;;;;;;;;1024442;28;20526;-71
2023/10/27 02:49:48;;;;;;;1.45;1.35;;;;;;;;;;1023442;28;20106;-71
2023/10/27 02:50:19;;;;;;;0.10;0.10;;;;;;;;;;1020034;28;20365;-71
2023/10/27 02:50:49;;;;;;;1.98;1.15;;;;;;;;;;1020369;28;20033;-71
2023/10/27 02:51:21;;;;;;;0.45;0.45;;;;;;;;;;1023043;28;20138;-72
2023/10/27 02:51:52;;;;;;;0.40;0.40;;;;;;;;;;1021503;28;20038;-72
2023/10/27 02:52:22;;;;;;;2.17;1.55;;;;;;;;;;1024943;28;20125;-72
2023/10/27 02:52:53;;;;;;;2.40;1.27;;;;;;;;;;1026123;28;20027;-72
2023/10/27 02:53:23;;;;;;;3.60;1.77;;;;;;;;;;1025437;28;20057;-72
2023/10/27 02:53:55;;;;;;;0.73;0.73;;;;;;;;;;1025524;28;20038;-71
2023/10/27 02:54:25;;;;;;;1.27;1.23;;;;;;;;;;1026652;28;20475;-71
2023/10/27 02:54:56;;;;;;;0.40;0.40;;;;;;;;;;1027573;28;20050;-72
2023/10/27 02:55:27;;;;;;;1.67;1.58;;;;;;;;;;1028214;28;20030;-72
2023/10/27 02:56:03;;;;;;;0.98;0.82;;;;;;;;;;1027511;28;20026;-73
2023/10/27 02:56:34;;;;;;;0.50;0.50;;;;;;;;;;1025257;28;20451;-72
2023/10/27 02:57:05;;;;;;;4.72;2.45;;;;;;;;;;1030474;28;20036;-72
2023/10/27 02:57:36;;;;;;;1.27;1.20;;;;;;;;;;1028369;28;20026;-72
2023/10/27 02:58:06;;;;;;;2.75;1.48;;;;;;;;;;1028170;28;20147;-72
2023/10/27 02:58:37;;;;;;;4.93;2.53;;;;;;;;;;1030760;28;20350;-72
2023/10/27 02:59:09;;;;;;;1.75;1.65;;;;;;;;;;1025234;28;20553;-72
2023/10/27 02:59:39;;;;;;;0.63;0.63;;;;;;;;;;1025576;28;20372;-72
2023/10/27 03:00:10;;;;;;;0.57;0.57;;;;;;;;;;1024849;28;20019;-71
2023/10/27 03:00:43;;;;;;;0.88;0.88;;;;;;;;;;1026451;28;20043;-72
2023/10/27 03:01:14;;;;;;;0.10;0.10;;;;;;;;;;1024356;28;20586;-72
2023/10/27 03:01:45;;;;;;;0.50;0.50;;;;;;;;;;1026482;28;20033;-72
2023/10/27 03:02:15;;;;;;;0.73;0.45;;;;;;;;;;1025934;28;20035;-72
2023/10/27 03:02:47;;;;;;;2.92;2.35;;;;;;;;;;1025489;28;20530;-72
2023/10/27 03:03:17;;;;;;;3.00;2.78;;;;;;;;;;1023909;28;20118;-72
2023/10/27 03:03:48;;;;;;;1.88;1.73;;;;;;;;;;1022718;28;20054;-72
2023/10/27 03:04:19;;;;;;;1.20;0.73;;;;;;;;;;1019353;29;20285;-73
2023/10/27 03:04:51;;;;;;;0.82;0.82;;;;;;;;;;1018812;28;20031;-70
2023/10/27 03:05:22;;;;;;;0.65;0.52;;;;;;;;;;1021622;28;20027;-71
2023/10/27 03:05:54;;;;;;;3.60;2.40;;;;;;;;;;1015361;29;20039;-71
2023/10/27 03:06:25;;;;;;;6.88;2.60;;;;;;;;;;1015866;28;20617;-70